Terminal Aerodrome Forecast
Issued by NWS

Home | Current Version | Previous Version | Text Only | Print | Product List | Glossary On
Versions: 1 2 3 4 5 6 7 8 9 10 11 12 13 14 15 16 17 18 19 20 21 22 23 24 25 26 27 28 29 30 31 32 33 34 35 36 37 38 39 40 41 42 43 44
000
FTUS45 KGJT 280532
TAFTEX
TAF
KTEX 280532Z 2806/2906 14004KT P6SM SCT080 BKN150
      TEMPO 2807/2808 VRB10G20KT -SHRA BKN070
     FM281000 VRB02KT P6SM SCT080 BKN180
     FM281800 23005KT P6SM VCTS SCT080CB BKN120
     FM290200 14004KT P6SM SCT080 SCT150=

USA.gov is the U.S. government's official web portal to all federal, state and local government web resources and services.